Time;durP1;ratioP1;P1;durP2;ratioP2;P2;SDS_P1;SDS_P2;PMS_P1;PMS_P2;Temp;Humidity;BMP_temperature;BMP_pressure;BME280_temperature;BME280_humidity;BME280_pressure;Samples;Min_cycle;Max_cycle;Signal;HPM_P1;HPM_P2
2022/04/21 00:00:57;;;;;;;99.77;39.80;;;;;;;;;;5056848;28;20284;-39
2022/04/21 00:03:25;;;;;;;103.97;41.77;;;;;;;;;;5074442;28;20210;-40
2022/04/21 00:05:52;;;;;;;95.57;40.17;;;;;;;;;;5074959;28;20230;-39
2022/04/21 00:08:20;;;;;;;95.20;39.40;;;;;;;;;;5074566;28;20540;-40
2022/04/21 00:10:47;;;;;;;102.67;43.37;;;;;;;;;;5074197;28;20207;-39
2022/04/21 00:13:15;;;;;;;91.13;41.47;;;;;;;;;;5074714;28;20288;-40
2022/04/21 00:15:42;;;;;;;107.03;40.17;;;;;;;;;;5074545;28;20207;-39
2022/04/21 00:18:09;;;;;;;100.50;41.13;;;;;;;;;;5074493;28;20208;-39
2022/04/21 00:20:36;;;;;;;97.67;41.60;;;;;;;;;;5074367;28;20526;-39
2022/04/21 00:25:49;;;;;;;96.07;39.65;;;;;;;;;;5074161;28;20610;-39
2022/04/21 00:28:16;;;;;;;96.83;39.97;;;;;;;;;;5074543;28;20206;-39
2022/04/21 00:30:43;;;;;;;101.33;39.97;;;;;;;;;;5077939;28;20214;-39
2022/04/21 00:33:10;;;;;;;97.70;41.27;;;;;;;;;;5077915;28;20231;-39
2022/04/21 00:35:37;;;;;;;91.53;40.57;;;;;;;;;;5078112;28;20215;-39
2022/04/21 00:38:05;;;;;;;90.20;38.70;;;;;;;;;;5077805;28;20199;-39
2022/04/21 00:40:32;;;;;;;84.67;37.63;;;;;;;;;;5077750;28;20203;-39
2022/04/21 00:43:00;;;;;;;89.53;39.10;;;;;;;;;;5077589;28;20204;-39
2022/04/21 00:45:29;;;;;;;87.13;37.17;;;;;;;;;;5077582;28;20203;-39
2022/04/21 00:47:58;;;;;;;85.33;38.97;;;;;;;;;;5077613;28;20230;-39
2022/04/21 00:50:28;;;;;;;80.17;36.53;;;;;;;;;;5077545;28;20268;-39
2022/04/21 00:52:57;;;;;;;81.83;35.73;;;;;;;;;;5077250;28;20216;-42
2022/04/21 00:55:25;;;;;;;77.87;35.30;;;;;;;;;;5077565;28;20274;-39
2022/04/21 00:57:53;;;;;;;75.80;33.53;;;;;;;;;;5077519;28;20207;-41
2022/04/21 01:00:20;;;;;;;72.10;33.10;;;;;;;;;;5077516;28;20211;-40
2022/04/21 01:02:49;;;;;;;68.23;32.37;;;;;;;;;;5077576;28;20203;-39
2022/04/21 01:05:32;;;;;;;64.63;30.47;;;;;;;;;;5077242;28;20272;-40
2022/04/21 01:08:02;;;;;;;61.07;29.93;;;;;;;;;;5077299;28;20204;-39
2022/04/21 01:10:30;;;;;;;52.90;27.53;;;;;;;;;;5077190;28;20568;-39
2022/04/21 01:12:59;;;;;;;59.30;29.10;;;;;;;;;;5077005;28;20231;-39
2022/04/21 01:15:26;;;;;;;59.20;28.13;;;;;;;;;;5076461;28;20644;-39
2022/04/21 01:17:54;;;;;;;57.03;29.20;;;;;;;;;;5077121;28;20286;-40
2022/04/21 01:20:25;;;;;;;54.13;27.97;;;;;;;;;;5077259;28;20272;-39
2022/04/21 01:22:53;;;;;;;54.30;27.83;;;;;;;;;;5077114;28;20211;-39
2022/04/21 01:25:20;;;;;;;56.77;27.23;;;;;;;;;;5077014;28;20633;-40
2022/04/21 01:27:50;;;;;;;50.40;26.47;;;;;;;;;;5077097;28;20221;-40
2022/04/21 01:30:18;;;;;;;53.43;26.20;;;;;;;;;;5076256;28;20200;-40
2022/04/21 01:32:48;;;;;;;51.90;26.77;;;;;;;;;;5077223;28;20284;-40
2022/04/21 01:35:15;;;;;;;57.83;27.13;;;;;;;;;;5076953;28;20210;-40
2022/04/21 01:43:14;;;;;;;56.27;27.13;;;;;;;;;;5076354;28;20629;-40
2022/04/21 01:45:43;;;;;;;55.38;27.00;;;;;;;;;;5076424;28;20211;-40
2022/04/21 01:48:10;;;;;;;54.13;26.10;;;;;;;;;;5076565;28;20265;-39
2022/04/21 01:50:37;;;;;;;63.77;28.37;;;;;;;;;;5076647;28;20210;-41
2022/04/21 01:53:04;;;;;;;60.90;28.07;;;;;;;;;;5076350;28;20223;-39
2022/04/21 01:55:31;;;;;;;65.85;29.13;;;;;;;;;;5076290;28;20204;-39
2022/04/21 01:57:59;;;;;;;69.57;28.93;;;;;;;;;;5076350;28;20661;-39
2022/04/21 02:00:26;;;;;;;72.90;30.93;;;;;;;;;;5075692;28;20292;-41
2022/04/21 02:02:53;;;;;;;77.97;31.50;;;;;;;;;;5059024;28;20202;-39
2022/04/21 02:05:21;;;;;;;69.23;31.27;;;;;;;;;;5076310;28;20204;-39
2022/04/21 02:07:48;;;;;;;80.40;31.93;;;;;;;;;;5076034;28;20203;-39
2022/04/21 02:10:16;;;;;;;83.63;32.47;;;;;;;;;;5076453;28;20203;-38
2022/04/21 02:12:45;;;;;;;78.13;31.73;;;;;;;;;;5076170;28;20227;-39
2022/04/21 02:15:13;;;;;;;83.13;33.63;;;;;;;;;;5075882;28;20203;-39
2022/04/21 02:17:40;;;;;;;80.43;31.23;;;;;;;;;;5081542;28;20206;-39
2022/04/21 02:20:09;;;;;;;86.27;33.43;;;;;;;;;;5096364;28;20263;-39
2022/04/21 02:22:36;;;;;;;86.00;32.10;;;;;;;;;;5096001;28;20297;-40
2022/04/21 02:25:09;;;;;;;89.40;33.17;;;;;;;;;;5096107;28;20625;-39
2022/04/21 02:27:38;;;;;;;91.93;32.90;;;;;;;;;;5096106;28;20190;-39
2022/04/21 02:30:06;;;;;;;83.15;31.20;;;;;;;;;;5095956;28;20202;-38
2022/04/21 02:32:34;;;;;;;86.30;31.33;;;;;;;;;;5095080;28;20219;-39
2022/04/21 02:35:03;;;;;;;90.03;30.10;;;;;;;;;;5096025;28;20202;-38
2022/04/21 02:37:56;;;;;;;83.37;29.33;;;;;;;;;;5095681;28;20199;-39
2022/04/21 02:40:23;;;;;;;96.07;32.67;;;;;;;;;;5093956;28;20580;-38
2022/04/21 02:42:51;;;;;;;99.13;32.57;;;;;;;;;;5095670;28;20656;-39
2022/04/21 02:45:18;;;;;;;94.30;32.43;;;;;;;;;;5095589;28;20198;-38
2022/04/21 02:47:45;;;;;;;101.27;33.80;;;;;;;;;;5095583;28;20206;-38
2022/04/21 02:50:14;;;;;;;94.90;33.57;;;;;;;;;;5094666;28;20205;-38
2022/04/21 02:52:42;;;;;;;120.33;34.23;;;;;;;;;;5093904;28;20227;-39
2022/04/21 02:57:58;;;;;;;97.23;33.33;;;;;;;;;;5095247;28;20647;-38
2022/04/21 03:00:26;;;;;;;107.87;33.20;;;;;;;;;;5095456;28;20214;-39
2022/04/21 03:02:53;;;;;;;100.20;32.83;;;;;;;;;;5095068;28;20356;-38
2022/04/21 03:05:20;;;;;;;110.20;32.70;;;;;;;;;;5094911;28;20201;-38
2022/04/21 03:07:47;;;;;;;108.47;31.83;;;;;;;;;;5095246;28;20210;-39
2022/04/21 03:10:14;;;;;;;110.30;32.23;;;;;;;;;;5094949;28;20202;-38
2022/04/21 03:12:41;;;;;;;117.43;32.93;;;;;;;;;;5094826;28;20293;-39
2022/04/21 03:15:11;;;;;;;120.63;35.67;;;;;;;;;;5094818;28;20206;-39
2022/04/21 03:17:39;;;;;;;121.37;34.33;;;;;;;;;;5094855;28;20217;-39
2022/04/21 03:20:07;;;;;;;130.50;33.97;;;;;;;;;;5094883;28;20198;-38
2022/04/21 03:25:20;;;;;;;145.17;35.10;;;;;;;;;;5094065;28;20291;-40
2022/04/21 03:27:50;;;;;;;142.77;36.37;;;;;;;;;;5093194;28;20263;-39
2022/04/21 03:30:17;;;;;;;144.20;37.60;;;;;;;;;;5093666;28;20679;-39
2022/04/21 03:32:45;;;;;;;135.90;34.07;;;;;;;;;;5091327;28;20194;-39
2022/04/21 03:35:12;;;;;;;159.30;37.20;;;;;;;;;;5093967;28;20202;-39
2022/04/21 03:37:39;;;;;;;144.60;35.43;;;;;;;;;;5093187;28;20698;-38
2022/04/21 03:40:08;;;;;;;136.70;35.77;;;;;;;;;;5082807;28;20226;-42
2022/04/21 03:42:36;;;;;;;133.80;35.80;;;;;;;;;;5084845;28;20203;-43
2022/04/21 03:45:03;;;;;;;125.00;35.03;;;;;;;;;;5076864;28;20641;-39
2022/04/21 03:47:30;;;;;;;136.07;37.27;;;;;;;;;;5091545;28;20305;-40
2022/04/21 03:49:58;;;;;;;130.23;35.60;;;;;;;;;;5093937;28;20206;-39
2022/04/21 03:52:25;;;;;;;130.13;36.90;;;;;;;;;;5094159;28;20233;-40
2022/04/21 03:54:52;;;;;;;111.60;32.80;;;;;;;;;;5094576;28;20296;-39
2022/04/21 03:57:20;;;;;;;108.70;33.90;;;;;;;;;;5092754;28;20206;-40
2022/04/21 03:59:47;;;;;;;116.97;33.87;;;;;;;;;;5087532;28;20284;-44
2022/04/21 04:02:14;;;;;;;127.60;35.97;;;;;;;;;;5092991;28;20668;-41
2022/04/21 04:04:41;;;;;;;121.83;35.17;;;;;;;;;;5095643;28;20214;-39
2022/04/21 04:12:40;;;;;;;106.77;33.30;;;;;;;;;;5088917;28;20287;-38
2022/04/21 04:15:09;;;;;;;91.97;29.13;;;;;;;;;;5096802;28;20229;-38
2022/04/21 04:17:36;;;;;;;108.27;35.03;;;;;;;;;;5096156;28;20230;-38
2022/04/21 04:20:05;;;;;;;103.93;34.23;;;;;;;;;;5096686;28;20238;-38
2022/04/21 04:22:36;;;;;;;101.67;31.97;;;;;;;;;;5097407;28;20692;-39
2022/04/21 04:25:03;;;;;;;99.67;34.57;;;;;;;;;;5097233;28;20269;-39
2022/04/21 04:27:30;;;;;;;112.17;37.07;;;;;;;;;;5097058;28;20287;-40
2022/04/21 04:29:57;;;;;;;143.97;53.13;;;;;;;;;;5096842;28;20226;-39
2022/04/21 04:32:24;;;;;;;142.57;53.73;;;;;;;;;;5097454;28;20237;-39
2022/04/21 04:34:51;;;;;;;116.50;38.20;;;;;;;;;;5096780;28;20234;-39
2022/04/21 04:37:19;;;;;;;118.57;38.77;;;;;;;;;;5097207;28;20256;-38
2022/04/21 04:39:46;;;;;;;120.83;38.43;;;;;;;;;;5096990;28;20243;-40
2022/04/21 04:42:16;;;;;;;120.13;38.43;;;;;;;;;;5097375;28;20240;-45
2022/04/21 04:44:47;;;;;;;115.13;39.97;;;;;;;;;;5097122;28;20237;-45
2022/04/21 04:47:15;;;;;;;118.90;39.67;;;;;;;;;;5097283;28;20690;-41
2022/04/21 04:49:42;;;;;;;125.03;39.17;;;;;;;;;;5096973;28;20261;-43
2022/04/21 04:52:09;;;;;;;117.90;39.73;;;;;;;;;;5097053;28;20246;-39
2022/04/21 04:54:36;;;;;;;121.97;39.87;;;;;;;;;;5096502;28;20303;-39
2022/04/21 04:57:04;;;;;;;126.20;41.03;;;;;;;;;;5095803;28;20226;-44
2022/04/21 04:59:31;;;;;;;123.57;43.27;;;;;;;;;;5096724;28;20226;-39
2022/04/21 05:01:59;;;;;;;133.80;43.47;;;;;;;;;;5096659;28;20230;-40
2022/04/21 05:04:26;;;;;;;128.87;44.97;;;;;;;;;;5097072;28;20231;-40
2022/04/21 05:06:55;;;;;;;142.87;44.03;;;;;;;;;;5096308;28;20222;-40
2022/04/21 05:09:23;;;;;;;135.60;42.70;;;;;;;;;;5096936;28;20223;-39
2022/04/21 05:11:52;;;;;;;133.57;44.77;;;;;;;;;;5096081;28;20218;-42
2022/04/21 05:14:21;;;;;;;124.17;42.63;;;;;;;;;;5096546;28;20246;-41
2022/04/21 05:16:49;;;;;;;120.07;40.83;;;;;;;;;;5095391;28;20225;-42
2022/04/21 05:19:19;;;;;;;119.57;43.43;;;;;;;;;;5096659;28;20218;-40
2022/04/21 05:21:47;;;;;;;124.63;42.37;;;;;;;;;;5096429;28;20233;-45
2022/04/21 05:24:15;;;;;;;106.37;39.00;;;;;;;;;;5096040;28;20302;-42
2022/04/21 05:26:43;;;;;;;108.97;40.33;;;;;;;;;;5086508;28;20211;-40
2022/04/21 05:32:01;;;;;;;100.70;38.33;;;;;;;;;;5090452;28;20571;-39
2022/04/21 05:34:30;;;;;;;85.93;36.08;;;;;;;;;;5092664;28;20246;-39
2022/04/21 05:36:58;;;;;;;75.87;33.53;;;;;;;;;;5095821;28;20219;-40
2022/04/21 05:39:27;;;;;;;71.30;34.80;;;;;;;;;;5096176;28;20264;-39
2022/04/21 05:41:57;;;;;;;73.10;32.97;;;;;;;;;;5095546;28;20230;-39
2022/04/21 05:44:25;;;;;;;68.77;32.40;;;;;;;;;;5081710;28;20238;-40
2022/04/21 05:46:53;;;;;;;67.38;29.92;;;;;;;;;;5075260;28;20677;-52
2022/04/21 05:49:20;;;;;;;70.80;30.87;;;;;;;;;;5076168;28;20535;-42
2022/04/21 05:51:48;;;;;;;67.47;30.10;;;;;;;;;;5075414;28;20249;-47
2022/04/21 05:54:16;;;;;;;57.93;28.70;;;;;;;;;;5075480;28;20695;-41
2022/04/21 05:56:44;;;;;;;57.97;28.30;;;;;;;;;;5075080;28;20227;-43
2022/04/21 05:59:11;;;;;;;55.70;27.05;;;;;;;;;;5075695;28;20238;-40
2022/04/21 06:01:38;;;;;;;53.97;26.33;;;;;;;;;;5075437;28;20673;-41
2022/04/21 06:04:05;;;;;;;49.88;26.67;;;;;;;;;;5075335;28;20219;-41
2022/04/21 06:06:32;;;;;;;49.43;24.70;;;;;;;;;;5075394;28;20318;-40
2022/04/21 06:09:00;;;;;;;46.50;24.03;;;;;;;;;;5075365;28;20344;-41
2022/04/21 06:11:27;;;;;;;49.88;26.13;;;;;;;;;;5074592;28;20219;-41
2022/04/21 06:13:54;;;;;;;56.00;26.23;;;;;;;;;;5084941;28;20566;-41
2022/04/21 06:16:22;;;;;;;56.20;26.40;;;;;;;;;;5095306;28;20226;-45
2022/04/21 06:18:50;;;;;;;49.60;25.70;;;;;;;;;;5095151;28;20234;-43
2022/04/21 06:21:17;;;;;;;43.60;24.50;;;;;;;;;;5095421;28;20229;-41
2022/04/21 06:23:45;;;;;;;53.22;25.00;;;;;;;;;;5095204;28;20715;-43
2022/04/21 06:26:13;;;;;;;46.10;24.97;;;;;;;;;;5094762;28;20672;-41
2022/04/21 06:28:41;;;;;;;40.73;22.80;;;;;;;;;;5094037;28;20234;-41
2022/04/21 06:31:09;;;;;;;42.15;24.02;;;;;;;;;;5094913;28;20229;-41
2022/04/21 06:33:36;;;;;;;37.70;22.23;;;;;;;;;;5095109;28;20242;-41
2022/04/21 06:36:06;;;;;;;38.63;21.65;;;;;;;;;;5095100;28;20223;-41
2022/04/21 06:38:33;;;;;;;42.77;23.97;;;;;;;;;;5095108;28;20223;-40
2022/04/21 06:41:02;;;;;;;41.50;22.55;;;;;;;;;;5094377;28;20684;-40
2022/04/21 06:49:01;;;;;;;30.30;19.33;;;;;;;;;;5093794;28;20219;-39
2022/04/21 06:51:30;;;;;;;37.75;20.63;;;;;;;;;;5094809;28;20292;-40
2022/04/21 06:53:57;;;;;;;35.13;21.20;;;;;;;;;;5094313;28;20238;-42
2022/04/21 06:56:23;;;;;;;37.20;21.23;;;;;;;;;;5094290;28;20223;-40
2022/04/21 06:58:55;;;;;;;32.85;19.73;;;;;;;;;;5094295;28;20222;-41
2022/04/21 07:01:23;;;;;;;33.13;19.42;;;;;;;;;;5094982;28;20306;-41
2022/04/21 07:03:50;;;;;;;37.00;20.70;;;;;;;;;;5094319;28;20238;-44
2022/04/21 07:06:18;;;;;;;35.30;20.42;;;;;;;;;;5094717;28;20218;-41
2022/04/21 07:08:45;;;;;;;39.00;21.30;;;;;;;;;;5094283;28;20657;-42
2022/04/21 07:11:12;;;;;;;32.30;19.42;;;;;;;;;;5093837;28;20230;-42
2022/04/21 07:13:39;;;;;;;33.20;20.67;;;;;;;;;;5074193;28;20549;-41
2022/04/21 07:16:06;;;;;;;28.45;18.77;;;;;;;;;;5074213;28;20300;-40
2022/04/21 07:18:34;;;;;;;27.52;20.65;;;;;;;;;;5074034;28;20219;-40
2022/04/21 07:21:01;;;;;;;29.10;20.57;;;;;;;;;;5074046;28;20231;-41
2022/04/21 07:23:29;;;;;;;33.95;21.08;;;;;;;;;;5074236;28;20292;-41
2022/04/21 07:25:56;;;;;;;29.83;19.50;;;;;;;;;;5073438;28;20576;-42
2022/04/21 07:28:23;;;;;;;29.92;20.00;;;;;;;;;;5073813;28;20227;-41
2022/04/21 07:30:50;;;;;;;29.67;20.50;;;;;;;;;;5073698;28;20227;-43
2022/04/21 07:33:18;;;;;;;37.47;19.00;;;;;;;;;;5073562;28;20219;-44
2022/04/21 07:35:46;;;;;;;30.27;20.00;;;;;;;;;;5073772;28;20239;-43
2022/04/21 07:38:13;;;;;;;34.30;21.57;;;;;;;;;;5073496;28;20223;-43
2022/04/21 07:40:41;;;;;;;34.17;20.30;;;;;;;;;;5073388;28;20239;-42
2022/04/21 07:43:09;;;;;;;30.75;20.73;;;;;;;;;;5077560;28;20211;-43
2022/04/21 07:45:40;;;;;;;27.00;19.95;;;;;;;;;;5094289;28;20238;-40
2022/04/21 07:48:07;;;;;;;35.70;22.45;;;;;;;;;;5093943;28;20222;-40
2022/04/21 07:50:35;;;;;;;36.10;20.97;;;;;;;;;;5090934;28;20543;-41
2022/04/21 07:53:20;;;;;;;33.20;21.00;;;;;;;;;;5094224;28;20287;-41
2022/04/21 07:55:52;;;;;;;31.40;20.00;;;;;;;;;;5093176;28;20248;-46
2022/04/21 07:58:21;;;;;;;35.22;20.38;;;;;;;;;;5094081;28;20227;-40
2022/04/21 08:00:49;;;;;;;38.28;20.20;;;;;;;;;;5093519;28;20310;-43
2022/04/21 08:03:18;;;;;;;29.25;18.35;;;;;;;;;;5093866;28;20223;-41
2022/04/21 08:05:46;;;;;;;31.33;20.63;;;;;;;;;;5093946;28;20214;-43
2022/04/21 08:08:13;;;;;;;30.50;19.42;;;;;;;;;;5094074;28;20222;-41
2022/04/21 08:10:40;;;;;;;31.00;20.55;;;;;;;;;;5093465;28;20227;-40
2022/04/21 08:13:09;;;;;;;37.60;21.13;;;;;;;;;;5093590;28;20233;-41
2022/04/21 08:15:36;;;;;;;32.45;19.00;;;;;;;;;;5093699;28;20554;-43
2022/04/21 08:18:04;;;;;;;34.85;21.45;;;;;;;;;;5093455;28;20218;-41
2022/04/21 08:20:32;;;;;;;28.80;19.35;;;;;;;;;;5093800;28;20222;-41
2022/04/21 08:23:00;;;;;;;28.58;17.83;;;;;;;;;;5093449;28;20224;-41
2022/04/21 08:34:15;;;;;;;29.25;17.83;;;;;;;;;;5093594;28;20251;-41
2022/04/21 08:36:42;;;;;;;25.52;18.02;;;;;;;;;;5093580;28;20244;-42
2022/04/21 08:39:09;;;;;;;31.23;20.08;;;;;;;;;;5093396;28;20256;-42
2022/04/21 08:41:41;;;;;;;29.08;19.38;;;;;;;;;;5092820;28;20245;-41
2022/04/21 08:44:10;;;;;;;33.78;20.63;;;;;;;;;;5093435;28;20230;-41
2022/04/21 08:46:39;;;;;;;31.92;19.90;;;;;;;;;;5092566;28;20223;-41
2022/04/21 08:49:07;;;;;;;30.10;19.73;;;;;;;;;;5093869;28;20234;-40
2022/04/21 08:51:34;;;;;;;29.33;19.58;;;;;;;;;;5097852;28;20579;-40
2022/04/21 08:54:02;;;;;;;31.50;19.15;;;;;;;;;;5097565;28;20238;-41
2022/04/21 08:56:30;;;;;;;27.33;17.95;;;;;;;;;;5097776;28;20629;-41
2022/04/21 08:58:57;;;;;;;23.20;15.80;;;;;;;;;;5087428;28;20207;-43
2022/04/21 09:01:25;;;;;;;27.20;17.80;;;;;;;;;;5077669;28;20280;-42
2022/04/21 09:03:52;;;;;;;24.95;17.00;;;;;;;;;;5078080;28;20219;-43
2022/04/21 09:06:21;;;;;;;25.02;17.23;;;;;;;;;;5077276;28;20207;-41
2022/04/21 09:09:21;;;;;;;25.48;18.63;;;;;;;;;;5077377;28;20637;-41
2022/04/21 09:11:50;;;;;;;23.08;17.40;;;;;;;;;;5077339;28;20199;-41
2022/04/21 09:14:18;;;;;;;24.55;16.10;;;;;;;;;;5077051;28;20200;-43
2022/04/21 09:16:45;;;;;;;20.38;15.63;;;;;;;;;;5077189;28;20501;-41
2022/04/21 09:19:13;;;;;;;21.90;15.93;;;;;;;;;;5077373;28;20202;-42
2022/04/21 09:21:41;;;;;;;18.10;13.90;;;;;;;;;;5077176;28;20233;-41
2022/04/21 09:24:18;;;;;;;20.40;15.88;;;;;;;;;;5077184;28;20207;-43
2022/04/21 09:26:45;;;;;;;20.52;13.90;;;;;;;;;;5077008;28;20206;-42
2022/04/21 09:29:22;;;;;;;20.75;14.32;;;;;;;;;;5076932;28;20207;-42
2022/04/21 09:32:02;;;;;;;21.52;13.43;;;;;;;;;;5076977;28;20502;-42
2022/04/21 09:34:35;;;;;;;16.67;13.13;;;;;;;;;;5076742;28;20668;-42
2022/04/21 09:37:06;;;;;;;16.73;13.02;;;;;;;;;;5076849;28;20653;-41
2022/04/21 09:39:39;;;;;;;17.70;13.00;;;;;;;;;;5076747;28;20199;-41
2022/04/21 09:42:07;;;;;;;16.15;10.82;;;;;;;;;;5076699;28;20199;-42
2022/04/21 09:47:32;;;;;;;15.00;10.05;;;;;;;;;;5076536;28;20625;-41
2022/04/21 09:50:12;;;;;;;11.80;8.10;;;;;;;;;;5076546;28;20687;-42
2022/04/21 09:52:47;;;;;;;10.35;8.07;;;;;;;;;;5076892;28;20192;-42
2022/04/21 09:55:21;;;;;;;10.65;8.07;;;;;;;;;;5076451;28;20231;-41
2022/04/21 09:58:05;;;;;;;11.55;7.75;;;;;;;;;;5076326;28;20210;-42
2022/04/21 10:00:34;;;;;;;13.60;8.00;;;;;;;;;;5077255;28;20188;-42
2022/04/21 10:03:03;;;;;;;9.07;7.55;;;;;;;;;;5075579;28;20238;-42
2022/04/21 10:05:32;;;;;;;9.98;7.25;;;;;;;;;;5076649;28;20207;-42
2022/04/21 10:08:04;;;;;;;10.88;7.60;;;;;;;;;;5076108;28;20203;-42
2022/04/21 10:10:32;;;;;;;11.45;6.78;;;;;;;;;;5081300;28;20644;-42
2022/04/21 10:13:01;;;;;;;10.18;7.13;;;;;;;;;;5095846;28;20194;-41
2022/04/21 10:15:29;;;;;;;14.02;7.57;;;;;;;;;;5095899;28;20226;-42
2022/04/21 10:17:57;;;;;;;11.48;7.47;;;;;;;;;;5095910;28;20206;-42
2022/04/21 10:20:25;;;;;;;8.20;6.43;;;;;;;;;;5095632;28;20205;-41
2022/04/21 10:22:53;;;;;;;9.18;7.00;;;;;;;;;;5078056;28;20195;-41
2022/04/21 10:25:33;;;;;;;9.63;6.45;;;;;;;;;;5095849;28;20217;-41
2022/04/21 10:28:01;;;;;;;11.15;7.10;;;;;;;;;;5095317;28;20191;-42
2022/04/21 10:30:31;;;;;;;9.45;5.88;;;;;;;;;;5095483;28;20214;-41
2022/04/21 10:33:01;;;;;;;12.52;6.85;;;;;;;;;;5096164;28;20264;-41
2022/04/21 10:35:28;;;;;;;8.48;6.38;;;;;;;;;;5095240;28;20652;-45
2022/04/21 10:38:13;;;;;;;10.70;7.10;;;;;;;;;;5095459;28;20195;-41
2022/04/21 10:41:06;;;;;;;9.98;7.03;;;;;;;;;;5095381;28;20256;-42
2022/04/21 10:43:48;;;;;;;9.52;6.88;;;;;;;;;;5095498;28;20191;-42
2022/04/21 10:46:26;;;;;;;13.07;7.10;;;;;;;;;;5095279;28;20206;-40
2022/04/21 10:48:54;;;;;;;13.05;7.72;;;;;;;;;;5095157;28;20267;-42
2022/04/21 10:57:16;;;;;;;13.40;7.20;;;;;;;;;;5095077;28;20618;-42
2022/04/21 10:59:51;;;;;;;10.80;6.80;;;;;;;;;;5095068;28;20287;-45
2022/04/21 11:02:18;;;;;;;14.05;6.18;;;;;;;;;;5093960;28;20201;-41
2022/04/21 11:04:45;;;;;;;10.38;6.28;;;;;;;;;;5094806;28;20214;-41
2022/04/21 11:07:13;;;;;;;8.52;6.43;;;;;;;;;;5094857;28;20198;-41
2022/04/21 11:09:50;;;;;;;10.57;7.60;;;;;;;;;;5094608;28;20207;-40
2022/04/21 11:12:41;;;;;;;8.82;6.22;;;;;;;;;;5094623;28;20538;-42
2022/04/21 11:15:38;;;;;;;10.10;6.93;;;;;;;;;;5093959;28;20341;-43
2022/04/21 11:18:10;;;;;;;10.20;6.80;;;;;;;;;;5094768;28;20214;-40
2022/04/21 11:20:41;;;;;;;8.88;6.20;;;;;;;;;;5095055;28;20207;-41
2022/04/21 11:23:10;;;;;;;10.00;7.00;;;;;;;;;;5094794;28;20195;-41
2022/04/21 11:25:37;;;;;;;8.85;6.75;;;;;;;;;;5094519;28;20199;-42
2022/04/21 11:28:05;;;;;;;11.85;7.38;;;;;;;;;;5094748;28;20198;-41
2022/04/21 11:30:33;;;;;;;10.75;6.90;;;;;;;;;;5093767;28;20217;-41
2022/04/21 11:33:00;;;;;;;9.63;7.03;;;;;;;;;;5094774;28;20505;-42
2022/04/21 11:35:27;;;;;;;11.02;6.82;;;;;;;;;;5094268;28;20660;-40
2022/04/21 11:37:56;;;;;;;10.80;7.28;;;;;;;;;;5094127;28;20576;-43
2022/04/21 11:40:27;;;;;;;12.23;7.15;;;;;;;;;;5094483;28;20567;-41
2022/04/21 11:42:56;;;;;;;10.30;7.50;;;;;;;;;;5094512;28;20206;-41
2022/04/21 11:45:28;;;;;;;10.48;8.10;;;;;;;;;;5094285;28;20210;-41
2022/04/21 11:47:56;;;;;;;15.73;8.70;;;;;;;;;;5085319;28;20228;-41
2022/04/21 11:50:27;;;;;;;11.65;7.95;;;;;;;;;;5093555;28;20226;-41
2022/04/21 11:52:56;;;;;;;13.85;8.07;;;;;;;;;;5092714;28;20238;-41
2022/04/21 11:55:28;;;;;;;12.35;8.40;;;;;;;;;;5093284;28;20294;-43
2022/04/21 11:57:56;;;;;;;15.48;7.53;;;;;;;;;;5092971;28;20239;-41
2022/04/21 12:08:46;;;;;;;14.23;9.48;;;;;;;;;;5071266;28;20223;-40
2022/04/21 12:11:19;;;;;;;13.70;8.10;;;;;;;;;;5070946;28;20962;-41
2022/04/21 12:13:48;;;;;;;11.23;7.40;;;;;;;;;;5071183;28;20227;-40
2022/04/21 12:16:44;;;;;;;11.35;8.13;;;;;;;;;;5070889;28;20235;-41
2022/04/21 12:19:33;;;;;;;9.55;7.68;;;;;;;;;;5070343;28;20555;-45
2022/04/21 12:22:09;;;;;;;10.23;7.97;;;;;;;;;;5068840;28;20569;-40
2022/04/21 12:24:48;;;;;;;12.15;8.70;;;;;;;;;;5068771;28;20215;-42
2022/04/21 12:27:23;;;;;;;15.32;8.63;;;;;;;;;;5069024;28;20215;-43
2022/04/21 12:29:57;;;;;;;13.15;8.98;;;;;;;;;;5068492;28;20230;-44
2022/04/21 12:32:27;;;;;;;16.70;8.50;;;;;;;;;;5074956;28;20207;-43
2022/04/21 12:34:56;;;;;;;14.48;9.02;;;;;;;;;;5069846;28;20200;-43
2022/04/21 12:37:37;;;;;;;13.20;8.57;;;;;;;;;;5092117;28;20317;-45
2022/04/21 12:40:06;;;;;;;18.48;10.00;;;;;;;;;;5095846;28;20191;-44
2022/04/21 12:42:47;;;;;;;18.35;9.90;;;;;;;;;;5094803;28;20190;-44
2022/04/21 12:45:16;;;;;;;17.17;9.77;;;;;;;;;;5089700;28;20525;-44
2022/04/21 12:47:46;;;;;;;11.88;9.07;;;;;;;;;;5086897;28;20318;-43
2022/04/21 12:50:21;;;;;;;14.25;8.32;;;;;;;;;;5092652;28;20268;-44
2022/04/21 12:52:51;;;;;;;17.38;10.40;;;;;;;;;;5092459;28;20223;-42
2022/04/21 12:55:20;;;;;;;30.30;13.65;;;;;;;;;;5092822;28;20265;-43
2022/04/21 12:58:02;;;;;;;22.58;11.10;;;;;;;;;;5091079;28;20668;-45
2022/04/21 13:00:30;;;;;;;26.15;13.48;;;;;;;;;;5087743;28;20214;-44
2022/04/21 13:02:57;;;;;;;18.05;11.25;;;;;;;;;;5093387;28;20230;-46
2022/04/21 13:05:24;;;;;;;21.85;12.00;;;;;;;;;;5094876;28;20254;-43
2022/04/21 13:07:52;;;;;;;26.20;13.85;;;;;;;;;;5095439;28;20226;-44
2022/04/21 13:10:21;;;;;;;25.95;16.23;;;;;;;;;;5092772;28;20275;-43
2022/04/21 13:12:48;;;;;;;23.63;14.05;;;;;;;;;;5095326;28;20215;-43
2022/04/21 13:15:16;;;;;;;25.60;13.85;;;;;;;;;;5094192;28;20226;-47
2022/04/21 13:17:43;;;;;;;24.90;12.57;;;;;;;;;;5091461;28;20215;-45
2022/04/21 13:21:52;;;;;;;24.98;12.73;;;;;;;;;;5095068;28;20218;-43
2022/04/21 13:23:04;;;;;;;52.97;26.15;;;;;;;;;;5092633;28;20359;-42
2022/04/21 13:25:39;;;;;;;24.42;12.77;;;;;;;;;;5094916;28;20220;-43
2022/04/21 13:28:06;;;;;;;24.13;13.48;;;;;;;;;;5082840;28;20272;-43
2022/04/21 13:30:34;;;;;;;28.63;15.13;;;;;;;;;;5089963;28;20718;-46
2022/04/21 13:35:49;;;;;;;18.75;12.50;;;;;;;;;;5076606;28;20249;-43
2022/04/21 13:38:17;;;;;;;25.23;13.88;;;;;;;;;;5079444;28;20245;-44
2022/04/21 13:40:44;;;;;;;21.27;13.93;;;;;;;;;;5084328;28;20219;-43
2022/04/21 13:43:12;;;;;;;25.10;12.85;;;;;;;;;;5074778;28;20215;-42
2022/04/21 13:46:00;;;;;;;21.38;12.88;;;;;;;;;;5079824;28;20230;-47
2022/04/21 13:48:27;;;;;;;19.85;13.20;;;;;;;;;;5091497;28;20313;-43
2022/04/21 13:50:54;;;;;;;21.25;12.35;;;;;;;;;;5091957;28;20304;-42
2022/04/21 13:53:22;;;;;;;18.83;13.07;;;;;;;;;;5091281;28;20222;-43
2022/04/21 13:55:49;;;;;;;16.30;10.57;;;;;;;;;;5093884;28;20234;-43
2022/04/21 13:58:16;;;;;;;14.13;10.93;;;;;;;;;;5077006;28;20219;-43
2022/04/21 14:00:46;;;;;;;20.38;12.23;;;;;;;;;;5089579;28;20222;-43
2022/04/21 14:03:13;;;;;;;16.55;13.23;;;;;;;;;;5086108;28;20693;-42
2022/04/21 14:05:41;;;;;;;15.63;12.00;;;;;;;;;;5094196;28;20549;-43
2022/04/21 14:08:09;;;;;;;17.30;11.55;;;;;;;;;;5094146;28;20225;-43
2022/04/21 14:10:36;;;;;;;15.20;9.73;;;;;;;;;;5094015;28;20227;-42
2022/04/21 14:13:04;;;;;;;14.70;10.13;;;;;;;;;;5091207;28;20222;-44
2022/04/21 14:15:32;;;;;;;18.13;12.38;;;;;;;;;;5093873;28;20211;-42
2022/04/21 14:18:00;;;;;;;18.80;12.60;;;;;;;;;;5091620;28;20314;-44
2022/04/21 14:20:27;;;;;;;20.27;14.68;;;;;;;;;;5093822;28;20214;-43
2022/04/21 14:22:54;;;;;;;22.70;16.75;;;;;;;;;;5091435;28;20241;-43
2022/04/21 14:25:22;;;;;;;25.42;18.33;;;;;;;;;;5093666;28;20672;-42
2022/04/21 14:27:49;;;;;;;27.95;17.38;;;;;;;;;;5087994;28;20582;-43
2022/04/21 14:30:16;;;;;;;26.55;17.58;;;;;;;;;;5086605;28;20219;-44
2022/04/21 14:32:43;;;;;;;30.73;20.98;;;;;;;;;;5086163;28;20732;-46
2022/04/21 14:35:11;;;;;;;29.30;17.58;;;;;;;;;;5089074;28;20621;-42
2022/04/21 14:45:55;;;;;;;17.92;12.10;;;;;;;;;;5082833;28;20234;-44
2022/04/21 14:48:22;;;;;;;13.20;10.32;;;;;;;;;;5081733;28;20215;-43
2022/04/21 14:50:49;;;;;;;18.50;12.73;;;;;;;;;;5088233;28;20716;-43
2022/04/21 14:53:16;;;;;;;17.95;11.02;;;;;;;;;;5093019;28;20287;-43
2022/04/21 14:55:44;;;;;;;22.13;13.98;;;;;;;;;;5093255;28;20583;-46
2022/04/21 14:58:11;;;;;;;19.10;13.02;;;;;;;;;;5093301;28;20226;-42
2022/04/21 15:00:39;;;;;;;25.40;13.95;;;;;;;;;;5092951;28;20219;-43
2022/04/21 15:03:07;;;;;;;22.38;16.23;;;;;;;;;;5090712;28;20223;-43
2022/04/21 15:05:35;;;;;;;25.58;19.15;;;;;;;;;;5090659;28;20218;-43
2022/04/21 15:08:05;;;;;;;18.48;12.45;;;;;;;;;;5093044;28;20214;-43
2022/04/21 15:10:34;;;;;;;16.90;10.75;;;;;;;;;;5093202;28;20226;-44
2022/04/21 15:13:03;;;;;;;17.52;12.90;;;;;;;;;;5093183;28;20215;-43
2022/04/21 15:15:30;;;;;;;19.42;13.00;;;;;;;;;;5092899;28;20280;-46
2022/04/21 15:17:57;;;;;;;17.02;12.50;;;;;;;;;;5092200;28;20231;-43
2022/04/21 15:20:26;;;;;;;17.40;10.90;;;;;;;;;;5092955;28;20248;-44
2022/04/21 15:22:53;;;;;;;23.13;13.27;;;;;;;;;;5085553;28;20254;-44
2022/04/21 15:25:21;;;;;;;16.30;11.85;;;;;;;;;;5087057;28;20219;-44
2022/04/21 15:27:49;;;;;;;21.88;15.57;;;;;;;;;;5088366;28;21052;-46
2022/04/21 15:30:17;;;;;;;22.38;15.57;;;;;;;;;;5092743;28;20691;-43
2022/04/21 15:32:53;;;;;;;26.20;17.15;;;;;;;;;;5091772;28;20236;-42
2022/04/21 15:35:20;;;;;;;25.48;15.82;;;;;;;;;;5091876;28;20225;-47